Time;durP1;ratioP1;P1;durP2;ratioP2;P2;SDS_P1;SDS_P2;PMS_P1;PMS_P2;Temp;Humidity;BMP_temperature;BMP_pressure;BME280_temperature;BME280_humidity;BME280_pressure;Samples;Min_cycle;Max_cycle;Signal;HPM_P1;HPM_P2
2022/12/05 00:01:35;;;;;;;50.45;26.58;;;4.80;68.50;;;;;;5043212;28;20392;-78
2022/12/05 00:04:03;;;;;;;57.10;30.85;;;4.80;65.00;;;;;;5025495;28;20470;-79
2022/12/05 00:06:30;;;;;;;52.30;27.90;;;4.80;66.60;;;;;;5040036;28;20911;-78
2022/12/05 00:08:57;;;;;;;54.90;27.85;;;4.80;67.00;;;;;;5018820;28;20408;-78
2022/12/05 00:11:28;;;;;;;55.72;27.08;;;4.80;65.60;;;;;;5022416;28;20396;-78
2022/12/05 00:13:56;;;;;;;53.80;26.48;;;4.80;63.30;;;;;;5023480;28;20480;-78
2022/12/05 00:16:23;;;;;;;53.67;28.10;;;4.70;64.70;;;;;;5026185;28;20445;-78
2022/12/05 00:18:50;;;;;;;53.33;29.10;;;4.70;66.50;;;;;;5051697;28;20421;-78
2022/12/05 00:21:24;;;;;;;51.63;28.70;;;4.60;69.00;;;;;;5033794;28;20407;-78
2022/12/05 00:23:51;;;;;;;49.60;26.42;;;4.60;68.70;;;;;;5049171;28;20373;-79
2022/12/05 00:26:17;;;;;;;51.35;26.27;;;4.60;66.80;;;;;;5052829;28;20385;-79
2022/12/05 00:28:42;;;;;;;54.05;27.45;;;4.70;66.60;;;;;;5033297;28;20419;-78
2022/12/05 00:31:11;;;;;;;52.08;27.63;;;4.60;66.70;;;;;;5030347;28;20392;-80
2022/12/05 00:33:37;;;;;;;54.13;27.95;;;4.60;68.00;;;;;;5024005;28;20377;-76
2022/12/05 00:36:09;;;;;;;52.33;27.02;;;4.60;67.30;;;;;;5038449;28;20389;-77
2022/12/05 00:38:35;;;;;;;52.30;26.55;;;4.60;68.50;;;;;;5021804;28;20393;-79
2022/12/05 00:41:04;;;;;;;48.07;26.53;;;4.70;66.80;;;;;;5021936;28;20387;-78
2022/12/05 00:43:29;;;;;;;53.60;27.65;;;4.70;65.60;;;;;;5018320;28;20393;-77
2022/12/05 00:45:55;;;;;;;50.23;25.93;;;4.70;65.10;;;;;;5024837;28;20417;-77
2022/12/05 00:48:21;;;;;;;45.97;25.33;;;4.70;64.30;;;;;;5036062;28;20393;-80
2022/12/05 00:50:46;;;;;;;51.03;26.50;;;4.70;65.40;;;;;;5023339;28;20806;-78
2022/12/05 00:53:12;;;;;;;50.42;27.00;;;4.70;64.60;;;;;;5022768;28;20396;-77
2022/12/05 00:55:37;;;;;;;54.28;28.63;;;4.60;66.20;;;;;;5021820;28;20381;-78
2022/12/05 00:58:03;;;;;;;50.95;27.15;;;4.60;67.10;;;;;;5019831;28;20389;-78
2022/12/05 01:00:28;;;;;;;49.72;26.90;;;4.60;67.10;;;;;;5016310;28;20912;-78
2022/12/05 01:02:54;;;;;;;51.67;27.20;;;4.60;68.20;;;;;;5018216;28;20659;-78
2022/12/05 01:05:20;;;;;;;52.38;27.55;;;4.60;67.80;;;;;;5021840;28;20868;-78
2022/12/05 01:07:46;;;;;;;50.00;26.67;;;4.70;68.40;;;;;;5025759;28;20462;-78
2022/12/05 01:10:11;;;;;;;52.53;27.13;;;4.70;65.70;;;;;;5020911;28;20424;-78
2022/12/05 01:12:37;;;;;;;49.55;25.85;;;4.70;66.50;;;;;;5020824;28;20389;-77
2022/12/05 01:15:03;;;;;;;52.37;27.73;;;4.60;67.20;;;;;;5027249;28;20392;-78
2022/12/05 01:17:29;;;;;;;48.72;26.50;;;4.60;70.40;;;;;;5026140;28;20388;-78
2022/12/05 01:19:54;;;;;;;52.22;26.77;;;4.60;67.20;;;;;;5025570;28;20400;-78
2022/12/05 01:22:20;;;;;;;47.80;24.70;;;4.70;66.80;;;;;;5024949;28;20396;-78
2022/12/05 01:24:45;;;;;;;48.50;25.43;;;4.70;65.40;;;;;;5018242;28;20400;-77
2022/12/05 01:27:11;;;;;;;50.53;27.30;;;4.70;65.80;;;;;;5016361;28;20543;-78
2022/12/05 01:29:36;;;;;;;48.80;25.93;;;4.70;67.70;;;;;;5032411;28;20397;-78
2022/12/05 01:32:02;;;;;;;44.37;25.00;;;4.70;67.40;;;;;;5031819;28;20442;-77
2022/12/05 01:34:28;;;;;;;50.30;27.25;;;4.80;66.20;;;;;;5015880;28;20432;-78
2022/12/05 01:36:54;;;;;;;51.60;26.27;;;4.70;64.90;;;;;;5015455;28;20392;-78
2022/12/05 01:39:19;;;;;;;52.00;26.17;;;4.70;66.50;;;;;;5016064;28;20396;-77
2022/12/05 01:41:48;;;;;;;49.07;25.50;;;4.70;67.60;;;;;;5016867;28;20409;-78
2022/12/05 01:44:13;;;;;;;53.85;26.52;;;4.70;66.10;;;;;;5016412;28;20407;-78
2022/12/05 01:46:45;;;;;;;46.87;25.57;;;4.70;64.20;;;;;;5015719;28;20404;-78
2022/12/05 01:49:17;;;;;;;46.83;26.40;;;4.70;64.20;;;;;;5031010;28;20385;-79
2022/12/05 01:51:46;;;;;;;51.03;26.80;;;4.70;66.00;;;;;;5015534;28;20389;-79
2022/12/05 01:54:13;;;;;;;47.08;26.30;;;4.70;68.20;;;;;;5019144;28;20399;-77
2022/12/05 01:56:41;;;;;;;52.22;28.05;;;4.60;68.80;;;;;;5020361;28;20384;-79
2022/12/05 01:59:10;;;;;;;47.63;26.65;;;4.70;66.60;;;;;;5028742;28;20384;-78
2022/12/05 02:01:36;;;;;;;48.53;26.33;;;4.80;66.00;;;;;;5027283;28;20432;-78
2022/12/05 02:04:03;;;;;;;45.70;24.15;;;4.80;65.90;;;;;;5026277;28;20575;-78
2022/12/05 02:06:30;;;;;;;46.13;25.90;;;4.90;62.20;;;;;;5031487;28;20492;-78
2022/12/05 02:08:56;;;;;;;47.63;25.15;;;4.80;62.50;;;;;;5015731;28;20446;-78
2022/12/05 02:11:25;;;;;;;49.38;26.35;;;4.90;62.10;;;;;;5015517;28;20381;-78
2022/12/05 02:14:03;;;;;;;45.08;25.38;;;4.80;62.90;;;;;;5014627;28;20388;-78
2022/12/05 02:16:46;;;;;;;43.83;24.67;;;4.90;62.20;;;;;;5029398;28;20940;-78
2022/12/05 02:19:14;;;;;;;46.60;25.85;;;4.90;61.10;;;;;;5018990;28;20385;-77
2022/12/05 02:21:40;;;;;;;130.52;32.28;;;4.90;62.20;;;;;;5018075;28;20413;-78
2022/12/05 02:24:49;;;;;;;47.20;25.67;;;4.90;62.50;;;;;;5018088;28;20412;-78
2022/12/05 02:27:38;;;;;;;46.38;25.70;;;4.80;62.90;;;;;;5014049;28;20395;-77
2022/12/05 02:30:15;;;;;;;44.67;26.05;;;4.90;62.60;;;;;;5015643;28;20428;-78
2022/12/05 02:32:49;;;;;;;43.75;25.80;;;4.90;62.60;;;;;;5012682;28;20742;-77
2022/12/05 02:35:28;;;;;;;48.42;25.33;;;4.90;62.60;;;;;;5013691;28;20395;-77
2022/12/05 02:38:16;;;;;;;48.58;26.42;;;4.80;61.40;;;;;;5015680;28;20388;-78
2022/12/05 02:40:52;;;;;;;45.00;26.33;;;4.80;63.80;;;;;;5013928;28;20388;-77
2022/12/05 02:43:24;;;;;;;45.50;25.70;;;4.70;63.20;;;;;;5016967;28;20372;-77
2022/12/05 02:45:53;;;;;;;46.03;26.17;;;4.70;65.70;;;;;;5028069;28;20408;-77
2022/12/05 02:48:20;;;;;;;47.75;26.13;;;4.80;65.40;;;;;;5026108;28;20427;-77
2022/12/05 02:50:47;;;;;;;52.00;25.40;;;4.80;66.30;;;;;;5026860;28;20373;-78
2022/12/05 02:53:16;;;;;;;47.22;25.90;;;4.90;62.30;;;;;;5033694;28;20392;-77
2022/12/05 02:55:43;;;;;;;45.30;25.90;;;4.80;62.10;;;;;;5014765;28;20435;-78
2022/12/05 02:58:15;;;;;;;51.53;27.35;;;4.80;63.40;;;;;;5023143;28;20389;-78
2022/12/05 03:00:46;;;;;;;45.30;26.10;;;4.80;64.60;;;;;;5025077;23;20447;-70
2022/12/05 03:03:20;;;;;;;48.17;25.80;;;4.80;64.10;;;;;;5009618;28;20506;-71
2022/12/05 03:05:53;;;;;;;49.45;27.20;;;4.80;63.20;;;;;;5009914;28;20539;-70
2022/12/05 03:08:24;;;;;;;51.80;26.42;;;4.70;63.40;;;;;;5010578;28;20392;-71
2022/12/05 03:10:51;;;;;;;49.15;27.38;;;4.70;65.50;;;;;;5012242;28;20384;-72
2022/12/05 03:13:23;;;;;;;51.78;28.63;;;4.70;66.30;;;;;;5011874;28;20396;-72
2022/12/05 03:15:54;;;;;;;50.20;27.98;;;4.70;68.40;;;;;;5009660;28;20475;-71
2022/12/05 03:18:25;;;;;;;49.53;26.88;;;4.80;68.00;;;;;;5009871;28;20381;-72
2022/12/05 03:21:02;;;;;;;45.23;26.50;;;4.80;69.00;;;;;;5009481;28;20386;-70
2022/12/05 03:23:38;;;;;;;47.60;25.77;;;4.90;64.70;;;;;;5009164;28;20451;-70
2022/12/05 03:26:16;;;;;;;53.47;27.38;;;4.80;63.40;;;;;;5009957;28;20397;-70
2022/12/05 03:28:48;;;;;;;50.65;27.33;;;4.80;65.60;;;;;;5010140;28;20403;-71
2022/12/05 03:31:18;;;;;;;48.78;27.23;;;4.70;66.70;;;;;;5007852;28;20380;-71
2022/12/05 03:33:48;;;;;;;46.70;26.40;;;4.70;68.10;;;;;;5025001;28;20480;-71
2022/12/05 03:36:16;;;;;;;57.75;26.63;;;4.70;67.20;;;;;;5010289;28;20385;-70
2022/12/05 03:38:51;;;;;;;48.20;26.47;;;4.80;66.80;;;;;;5010003;28;20719;-72
2022/12/05 03:41:31;;;;;;;49.53;26.80;;;4.90;65.90;;;;;;5009234;28;20380;-71
2022/12/05 03:44:06;;;;;;;47.97;26.35;;;5.00;62.80;;;;;;5010834;28;20389;-71
2022/12/05 03:46:51;;;;;;;47.92;27.40;;;5.00;62.50;;;;;;5013494;28;20438;-71
2022/12/05 03:49:39;;;;;;;46.00;24.75;;;5.00;61.40;;;;;;5012491;28;20381;-71
2022/12/05 03:52:57;;;;;;;46.33;25.27;;;5.00;62.40;;;;;;5012983;28;20523;-71
2022/12/05 03:55:27;;;;;;;48.00;27.20;;;4.80;64.40;;;;;;5000983;28;20500;-71
2022/12/05 03:58:07;;;;;;;44.45;24.77;;;4.80;67.00;;;;;;5022946;28;20392;-71
2022/12/05 04:00:39;;;;;;;45.67;24.80;;;4.80;67.00;;;;;;5032312;28;20466;-70
2022/12/05 04:03:19;;;;;;;43.53;24.95;;;4.90;64.90;;;;;;5024238;28;20403;-70
2022/12/05 04:05:45;;;;;;;39.85;23.70;;;5.00;62.10;;;;;;5034111;28;20405;-70
2022/12/05 04:08:32;;;;;;;46.47;25.77;;;4.90;62.70;;;;;;5032862;28;20459;-70
2022/12/05 04:11:06;;;;;;;43.20;25.23;;;4.90;64.20;;;;;;5012930;28;20407;-71
2022/12/05 04:13:39;;;;;;;48.20;25.10;;;5.00;62.80;;;;;;5013617;28;20384;-71
2022/12/05 04:19:16;;;;;;;44.80;26.20;;;4.90;63.20;;;;;;5014498;28;20900;-71
2022/12/05 04:21:45;;;;;;;48.97;24.70;;;5.00;63.60;;;;;;5014848;28;20389;-71
2022/12/05 04:27:20;;;;;;;45.90;25.27;;;4.90;62.70;;;;;;5015988;28;20384;-72
2022/12/05 04:30:03;;;;;;;43.90;25.15;;;4.90;64.70;;;;;;5014062;28;20912;-71
2022/12/05 04:32:56;;;;;;;44.65;25.33;;;5.00;63.40;;;;;;5013689;28;20405;-71
2022/12/05 04:35:29;;;;;;;42.83;25.08;;;5.10;63.90;;;;;;5013033;28;20385;-71
2022/12/05 04:38:02;;;;;;;47.33;26.33;;;4.80;66.50;;;;;;5013284;28;20472;-72
2022/12/05 04:40:38;;;;;;;47.37;26.27;;;4.70;69.70;;;;;;5013505;28;20707;-71
2022/12/05 04:43:05;;;;;;;46.55;26.60;;;4.90;69.10;;;;;;5012160;28;20380;-71
2022/12/05 04:45:33;;;;;;;44.40;26.77;;;4.90;69.00;;;;;;5012555;28;20785;-71
2022/12/05 04:48:03;;;;;;;53.58;28.00;;;4.70;70.70;;;;;;5012511;28;20392;-71
2022/12/05 04:50:32;;;;;;;51.45;27.48;;;4.60;73.50;;;;;;5012358;28;20479;-71
2022/12/05 04:52:59;;;;;;;48.70;27.23;;;4.50;75.80;;;;;;5027049;28;20481;-72
2022/12/05 04:55:26;;;;;;;51.80;27.58;;;4.60;77.10;;;;;;5014492;28;20393;-72
2022/12/05 04:58:00;;;;;;;49.10;27.30;;;4.50;78.30;;;;;;5014939;28;20492;-72
2022/12/05 05:00:30;;;;;;;50.05;27.98;;;4.40;79.10;;;;;;5014806;28;20397;-70
2022/12/05 05:03:21;;;;;;;50.08;27.73;;;4.40;80.70;;;;;;5015047;28;20393;-71
2022/12/05 05:05:52;;;;;;;46.60;26.77;;;4.40;80.80;;;;;;5003678;28;20408;-71
2022/12/05 05:08:24;;;;;;;46.90;27.00;;;4.40;81.00;;;;;;5012132;28;20389;-70
2022/12/05 05:11:11;;;;;;;55.10;29.02;;;4.40;79.60;;;;;;5012118;28;20476;-70
2022/12/05 05:13:37;;;;;;;47.05;27.75;;;4.30;80.40;;;;;;5011989;28;20695;-71
2022/12/05 05:16:03;;;;;;;48.85;27.25;;;4.30;81.40;;;;;;5011747;28;20484;-71
2022/12/05 05:18:29;;;;;;;46.78;26.02;;;4.30;81.60;;;;;;5013190;28;20381;-71
2022/12/05 05:20:55;;;;;;;43.70;26.35;;;4.40;81.40;;;;;;5014920;28;20381;-71
2022/12/05 05:23:20;;;;;;;49.60;26.80;;;4.60;77.30;;;;;;5016489;28;20439;-71
2022/12/05 05:25:52;;;;;;;49.50;26.87;;;4.50;77.30;;;;;;5015390;28;20465;-72
2022/12/05 05:28:17;;;;;;;46.80;27.23;;;4.40;78.60;;;;;;5012363;28;20493;-71
2022/12/05 05:30:43;;;;;;;51.07;29.13;;;4.40;80.20;;;;;;5011602;28;20490;-71
2022/12/05 05:33:08;;;;;;;49.83;27.70;;;4.30;82.00;;;;;;5010803;28;20558;-70
2022/12/05 05:35:37;;;;;;;43.63;26.17;;;4.30;82.40;;;;;;5010203;28;20409;-71
2022/12/05 05:38:03;;;;;;;48.78;26.88;;;4.30;83.80;;;;;;5012479;28;20491;-71
2022/12/05 05:40:29;;;;;;;52.25;27.15;;;4.30;84.60;;;;;;5013689;28;20778;-71
2022/12/05 05:42:55;;;;;;;47.20;27.40;;;4.40;84.00;;;;;;5009134;28;20445;-72
2022/12/05 05:45:20;;;;;;;52.63;27.60;;;4.30;83.10;;;;;;5010621;28;20405;-74
2022/12/05 05:47:49;;;;;;;48.28;28.08;;;4.30;83.90;;;;;;5011099;28;20488;-75
2022/12/05 05:50:15;;;;;;;49.65;27.77;;;4.30;84.70;;;;;;4993904;28;20486;-73
2022/12/05 05:52:41;;;;;;;48.47;28.30;;;4.30;84.50;;;;;;5007594;28;20447;-75
2022/12/05 05:55:08;;;;;;;45.28;25.92;;;4.30;84.40;;;;;;5008371;28;20400;-73
2022/12/05 05:57:34;;;;;;;41.50;24.92;;;4.40;85.10;;;;;;5007744;28;20400;-74
2022/12/05 06:00:00;;;;;;;47.90;26.27;;;4.60;75.90;;;;;;5007815;28;20475;-74
2022/12/05 06:02:32;;;;;;;47.80;26.52;;;4.50;77.40;;;;;;5007570;28;21800;-74
2022/12/05 06:04:58;;;;;;;49.25;27.20;;;4.50;80.00;;;;;;5009198;28;20440;-74
2022/12/05 06:07:24;;;;;;;46.83;27.03;;;4.50;81.30;;;;;;5006714;28;20441;-74
2022/12/05 06:09:49;;;;;;;51.53;28.35;;;4.40;82.40;;;;;;5010119;28;20796;-74
2022/12/05 06:12:15;;;;;;;48.60;27.88;;;4.30;83.40;;;;;;5009573;28;20384;-74
2022/12/05 06:14:41;;;;;;;49.73;27.60;;;4.30;84.40;;;;;;5024166;28;20415;-74
2022/12/05 06:17:06;;;;;;;55.00;28.20;;;4.20;85.20;;;;;;5008804;28;20423;-75
2022/12/05 06:19:32;;;;;;;49.90;28.20;;;4.20;85.80;;;;;;5007266;28;20427;-75
2022/12/05 06:21:58;;;;;;;46.77;26.30;;;4.20;86.40;;;;;;5007651;28;20436;-73
2022/12/05 06:24:23;;;;;;;45.37;26.40;;;4.20;86.80;;;;;;5007956;28;20882;-74
2022/12/05 06:26:49;;;;;;;48.58;27.15;;;4.20;86.60;;;;;;5008667;28;20495;-74
2022/12/05 06:29:14;;;;;;;48.53;28.40;;;4.20;87.20;;;;;;5007659;28;20455;-75
2022/12/05 06:31:41;;;;;;;51.80;29.02;;;4.20;87.40;;;;;;5007717;28;20481;-73
2022/12/05 06:34:06;;;;;;;46.90;26.55;;;4.20;87.50;;;;;;5007725;28;20762;-73
2022/12/05 06:36:32;;;;;;;47.58;27.00;;;4.20;87.00;;;;;;5007882;28;20393;-73
2022/12/05 06:38:59;;;;;;;46.33;26.77;;;4.20;87.00;;;;;;5008532;28;20381;-73
2022/12/05 06:41:26;;;;;;;44.22;27.20;;;4.20;86.70;;;;;;5007560;28;20472;-73
2022/12/05 06:43:53;;;;;;;48.33;26.55;;;4.30;87.20;;;;;;5008387;28;20388;-75
2022/12/05 06:46:19;;;;;;;48.53;26.88;;;4.30;87.40;;;;;;5008230;28;20757;-73
2022/12/05 06:48:45;;;;;;;40.55;24.75;;;4.40;88.00;;;;;;5008206;28;20421;-74
2022/12/05 06:51:13;;;;;;;41.37;24.03;;;4.60;84.50;;;;;;5008061;28;20913;-73
2022/12/05 06:53:39;;;;;;;42.53;24.08;;;4.70;79.10;;;;;;5010739;28;20396;-73
2022/12/05 06:56:10;;;;;;;38.40;23.40;;;4.90;76.00;;;;;;5011400;28;20743;-74
2022/12/05 06:58:36;;;;;;;39.92;23.10;;;4.90;70.50;;;;;;5011233;28;20392;-74
2022/12/05 07:03:48;;;;;;;40.05;23.92;;;4.80;74.30;;;;;;5008064;28;20416;-74
2022/12/05 07:06:14;;;;;;;40.08;23.50;;;4.70;76.90;;;;;;5005106;28;20470;-72
2022/12/05 07:08:40;;;;;;;42.40;24.45;;;4.50;79.00;;;;;;5007274;28;20454;-73
2022/12/05 07:11:06;;;;;;;39.33;22.87;;;4.30;81.70;;;;;;5006988;28;20869;-72
2022/12/05 07:13:32;;;;;;;37.15;23.20;;;4.40;80.80;;;;;;5006992;28;20896;-72
2022/12/05 07:15:58;;;;;;;35.23;22.67;;;4.40;79.20;;;;;;5007515;28;20414;-72
2022/12/05 07:18:24;;;;;;;40.35;24.60;;;4.30;80.20;;;;;;5007664;28;20466;-73
2022/12/05 07:21:01;;;;;;;43.10;24.85;;;4.20;82.10;;;;;;5010363;28;20408;-73
2022/12/05 07:23:27;;;;;;;41.85;25.13;;;4.20;84.00;;;;;;5011382;28;20400;-71
2022/12/05 07:25:53;;;;;;;42.65;24.98;;;4.30;83.50;;;;;;5009326;28;20409;-72
2022/12/05 07:28:19;;;;;;;39.17;24.20;;;4.20;83.60;;;;;;5011037;28;20480;-72
2022/12/05 07:30:44;;;;;;;38.00;23.42;;;4.30;83.30;;;;;;5010846;28;20557;-70
2022/12/05 07:33:10;;;;;;;40.87;24.53;;;4.20;82.20;;;;;;5010627;28;20427;-71
2022/12/05 07:35:36;;;;;;;40.22;24.33;;;4.10;83.20;;;;;;5010415;28;20400;-71
2022/12/05 07:38:02;;;;;;;37.42;21.85;;;4.10;84.30;;;;;;5010374;28;20385;-70
2022/12/05 07:40:27;;;;;;;37.53;21.73;;;4.20;83.40;;;;;;5009400;28;20408;-70
2022/12/05 07:42:53;;;;;;;35.63;21.63;;;4.40;79.10;;;;;;5009876;28;20805;-71
2022/12/05 07:45:20;;;;;;;36.90;22.20;;;4.30;78.80;;;;;;5010822;28;20413;-70
2022/12/05 07:47:46;;;;;;;33.92;22.27;;;4.30;77.90;;;;;;5010470;28;20454;-70
2022/12/05 07:50:13;;;;;;;37.10;22.23;;;4.30;78.50;;;;;;5010089;28;20499;-70
2022/12/05 07:52:38;;;;;;;34.33;22.77;;;4.20;80.10;;;;;;5010232;28;20460;-70
2022/12/05 07:55:05;;;;;;;35.83;21.30;;;4.10;81.40;;;;;;5015139;28;20771;-71
2022/12/05 07:57:30;;;;;;;40.40;25.40;;;4.20;82.10;;;;;;5020564;28;20397;-70
2022/12/05 07:59:56;;;;;;;37.78;22.52;;;4.20;81.80;;;;;;5017224;28;20508;-70
2022/12/05 08:02:22;;;;;;;38.35;24.25;;;4.20;81.70;;;;;;5010553;28;20421;-71
2022/12/05 08:04:47;;;;;;;38.38;23.30;;;4.20;82.70;;;;;;5013643;28;20472;-71
2022/12/05 08:07:13;;;;;;;36.70;23.27;;;4.20;83.20;;;;;;5023552;28;20497;-72
2022/12/05 08:09:38;;;;;;;36.00;22.27;;;4.20;84.20;;;;;;5026594;28;20467;-69
2022/12/05 08:12:04;;;;;;;38.53;23.50;;;4.30;85.40;;;;;;5023414;28;20400;-71
2022/12/05 08:14:31;;;;;;;39.07;22.40;;;4.30;84.50;;;;;;5017212;28;20388;-71
2022/12/05 08:16:56;;;;;;;37.85;23.33;;;4.30;84.00;;;;;;5012026;28;20396;-72
2022/12/05 08:19:22;;;;;;;33.93;21.67;;;4.30;83.30;;;;;;5011100;28;20498;-72
2022/12/05 08:21:48;;;;;;;37.53;23.60;;;4.40;82.00;;;;;;5008528;28;20401;-72
2022/12/05 08:24:13;;;;;;;34.00;21.95;;;4.30;81.90;;;;;;5009379;28;20416;-71
2022/12/05 08:26:39;;;;;;;32.88;21.15;;;4.40;82.10;;;;;;5009744;28;20392;-72
2022/12/05 08:29:08;;;;;;;33.30;20.50;;;4.50;81.50;;;;;;5009788;28;20389;-71
2022/12/05 08:31:37;;;;;;;36.63;23.23;;;4.60;79.10;;;;;;5007888;28;20387;-71
2022/12/05 08:34:03;;;;;;;35.80;22.43;;;4.60;79.00;;;;;;5009714;28;20561;-71
2022/12/05 08:36:30;;;;;;;33.77;21.57;;;4.60;78.90;;;;;;5010410;28;20460;-71
2022/12/05 08:39:00;;;;;;;35.47;22.00;;;4.60;78.00;;;;;;5010673;28;20481;-71
2022/12/05 08:41:29;;;;;;;29.83;19.65;;;4.50;77.90;;;;;;5011711;28;20390;-71
2022/12/05 08:43:57;;;;;;;32.03;19.90;;;4.60;77.80;;;;;;5010782;28;20542;-71
2022/12/05 08:46:22;;;;;;;29.85;19.13;;;4.60;77.10;;;;;;5009224;28;20490;-71
2022/12/05 08:48:48;;;;;;;31.60;20.53;;;4.60;76.90;;;;;;5007788;28;20996;-71
2022/12/05 08:51:22;;;;;;;31.47;18.97;;;4.60;77.80;;;;;;5008826;28;20427;-72
2022/12/05 08:53:47;;;;;;;25.77;17.25;;;4.60;79.10;;;;;;5010178;28;20905;-71
2022/12/05 08:56:13;;;;;;;25.60;17.25;;;4.60;79.00;;;;;;5009952;28;20404;-72
2022/12/05 08:58:40;;;;;;;23.53;16.70;;;4.60;79.00;;;;;;5007792;28;20423;-73
2022/12/05 09:01:13;;;;;;;25.10;17.10;;;4.60;79.30;;;;;;5020375;23;20531;-73
2022/12/05 09:03:40;;;;;;;23.25;17.10;;;4.70;79.20;;;;;;5009911;28;20544;-74
2022/12/05 09:06:10;;;;;;;28.55;19.05;;;4.60;76.20;;;;;;5020614;28;20650;-74
2022/12/05 09:08:37;;;;;;;27.98;17.90;;;4.60;77.50;;;;;;5022978;28;20753;-73
2022/12/05 09:11:23;;;;;;;24.00;17.05;;;4.60;76.10;;;;;;4999170;28;20385;-74
2022/12/05 09:13:50;;;;;;;25.80;16.92;;;4.90;73.00;;;;;;5012024;28;20971;-74
2022/12/05 09:16:21;;;;;;;20.45;15.35;;;4.90;74.50;;;;;;5011919;28;20393;-74
2022/12/05 09:18:48;;;;;;;22.38;15.60;;;5.20;64.50;;;;;;5011815;28;20392;-74
2022/12/05 09:21:20;;;;;;;21.20;15.23;;;5.20;64.20;;;;;;5010586;28;20408;-75
2022/12/05 09:23:46;;;;;;;22.90;15.52;;;5.20;65.80;;;;;;5011600;28;20931;-74
2022/12/05 09:26:14;;;;;;;21.98;15.75;;;5.10;66.20;;;;;;5011884;28;20452;-74
2022/12/05 09:28:41;;;;;;;24.17;16.35;;;5.20;65.30;;;;;;5013953;28;20493;-74
2022/12/05 09:31:14;;;;;;;26.35;16.38;;;5.10;66.00;;;;;;5023252;28;20563;-75
2022/12/05 09:33:40;;;;;;;28.10;18.33;;;5.10;67.00;;;;;;5011476;28;20428;-74
2022/12/05 09:36:09;;;;;;;22.33;17.30;;;5.00;66.90;;;;;;5011808;28;20854;-72
2022/12/05 09:38:35;;;;;;;23.03;15.70;;;4.90;70.20;;;;;;5010444;28;20396;-75
2022/12/05 09:42:03;;;;;;;22.87;15.00;;;5.20;65.30;;;;;;5009835;28;20407;-74
2022/12/05 09:44:33;;;;;;;22.92;14.98;;;5.50;59.90;;;;;;5010840;28;20438;-74
2022/12/05 09:47:21;;;;;;;24.43;16.80;;;5.60;57.20;;;;;;5010251;28;20492;-73
2022/12/05 09:49:52;;;;;;;20.20;14.90;;;5.50;60.80;;;;;;5005482;28;20459;-73
2022/12/05 09:52:32;;;;;;;20.70;14.85;;;5.60;59.10;;;;;;5010018;28;20389;-72
2022/12/05 09:55:04;;;;;;;26.45;16.30;;;5.50;58.90;;;;;;5010542;28;20491;-74
2022/12/05 09:57:35;;;;;;;22.30;15.50;;;5.60;61.80;;;;;;5009793;28;20405;-74
2022/12/05 10:00:04;;;;;;;21.87;16.30;;;5.60;62.70;;;;;;5009949;28;20442;-74
2022/12/05 10:03:06;;;;;;;22.42;15.90;;;5.60;61.20;;;;;;5009335;28;20904;-74
2022/12/05 10:05:55;;;;;;;21.85;14.32;;;5.70;59.20;;;;;;5001787;28;20434;-74
2022/12/05 10:08:44;;;;;;;22.38;15.82;;;5.90;58.10;;;;;;5010917;28;20509;-73
2022/12/05 10:11:22;;;;;;;24.15;16.40;;;5.90;56.40;;;;;;5009816;28;20906;-74
2022/12/05 10:14:01;;;;;;;21.80;15.70;;;5.90;57.80;;;;;;5010497;28;20472;-74
2022/12/05 10:16:44;;;;;;;21.23;16.00;;;5.90;57.30;;;;;;5010113;28;20777;-75
2022/12/05 10:19:17;;;;;;;22.45;15.38;;;5.90;57.00;;;;;;5010392;28;20396;-75
2022/12/05 10:21:57;;;;;;;21.85;15.68;;;5.70;57.30;;;;;;5010193;28;20975;-74
2022/12/05 10:24:32;;;;;;;24.27;17.50;;;5.70;58.20;;;;;;5012075;28;20445;-74
2022/12/05 10:27:05;;;;;;;25.00;16.15;;;5.60;59.30;;;;;;5013988;28;20443;-75
2022/12/05 10:29:38;;;;;;;25.67;17.15;;;5.70;60.00;;;;;;5012721;28;20428;-74
2022/12/05 10:32:24;;;;;;;21.98;17.65;;;5.60;61.80;;;;;;5009594;28;20432;-73
2022/12/05 10:34:58;;;;;;;22.55;15.20;;;5.50;64.50;;;;;;5011613;28;20415;-75
2022/12/05 10:37:24;;;;;;;21.48;15.15;;;5.60;63.60;;;;;;5011558;28;20399;-75
2022/12/05 10:39:52;;;;;;;24.23;16.90;;;5.70;61.30;;;;;;5011375;28;20388;-75
2022/12/05 10:42:34;;;;;;;22.63;16.08;;;5.70;59.90;;;;;;5028805;28;20397;-74
2022/12/05 10:45:06;;;;;;;24.75;16.90;;;5.50;59.20;;;;;;5011168;28;20432;-75
2022/12/05 10:47:33;;;;;;;23.90;16.77;;;5.40;62.20;;;;;;4996073;28;20396;-76
2022/12/05 10:50:04;;;;;;;23.75;16.33;;;5.20;62.80;;;;;;5010006;28;20385;-75
2022/12/05 10:52:31;;;;;;;25.25;16.55;;;4.90;63.90;;;;;;5015469;28;20385;-74
2022/12/05 10:55:02;;;;;;;25.80;16.60;;;4.90;65.90;;;;;;5018511;28;20785;-75
2022/12/05 10:57:29;;;;;;;24.17;16.75;;;4.80;66.10;;;;;;5020080;28;20392;-75
2022/12/05 10:59:55;;;;;;;26.23;17.58;;;4.60;66.80;;;;;;5019379;28;20476;-73
2022/12/05 11:02:30;;;;;;;25.73;17.50;;;4.60;71.10;;;;;;5017586;28;20435;-74
2022/12/05 11:04:57;;;;;;;23.77;17.47;;;4.60;71.40;;;;;;5017119;28;20483;-75
2022/12/05 11:07:46;;;;;;;23.35;16.60;;;4.60;68.90;;;;;;5017317;28;20754;-75
2022/12/05 11:10:22;;;;;;;22.73;16.50;;;4.60;68.20;;;;;;5015892;28;20400;-75
2022/12/05 11:12:48;;;;;;;25.98;16.60;;;4.50;69.10;;;;;;5017156;28;20392;-74
2022/12/05 11:15:21;;;;;;;25.63;17.15;;;4.40;68.20;;;;;;5017739;28;20400;-75
2022/12/05 11:17:48;;;;;;;24.90;17.60;;;4.40;69.70;;;;;;5017353;28;20467;-74
2022/12/05 11:20:17;;;;;;;22.73;15.93;;;4.40;71.20;;;;;;5016478;28;20404;-73
2022/12/05 11:22:48;;;;;;;24.43;17.63;;;4.50;69.40;;;;;;5018012;28;20400;-75
2022/12/05 11:25:43;;;;;;;25.20;17.73;;;4.70;70.60;;;;;;5018846;28;20881;-73
2022/12/05 11:28:28;;;;;;;24.27;17.50;;;4.70;69.00;;;;;;5009978;28;20401;-75
2022/12/05 11:31:21;;;;;;;25.83;18.13;;;4.70;71.90;;;;;;5018652;28;20392;-75
2022/12/05 11:34:16;;;;;;;23.25;16.70;;;4.70;72.50;;;;;;5018369;28;20749;-76
2022/12/05 11:36:52;;;;;;;20.25;14.80;;;5.00;69.20;;;;;;5017358;28;20503;-75
2022/12/05 11:39:18;;;;;;;20.50;15.50;;;5.10;63.20;;;;;;5018725;28;20381;-74
2022/12/05 11:42:04;;;;;;;23.48;15.30;;;4.90;66.30;;;;;;5019190;28;20398;-74
2022/12/05 11:44:49;;;;;;;21.13;15.32;;;5.10;64.20;;;;;;5019373;28;20420;-75
2022/12/05 11:47:39;;;;;;;21.98;16.42;;;4.90;66.60;;;;;;4999698;28;20413;-77
2022/12/05 11:50:15;;;;;;;22.98;16.10;;;4.90;69.00;;;;;;5011114;28;20381;-74
2022/12/05 11:52:41;;;;;;;19.00;14.67;;;5.20;69.20;;;;;;5025217;28;20426;-75
2022/12/05 11:55:12;;;;;;;21.47;15.43;;;5.30;66.30;;;;;;5036574;28;20418;-76
2022/12/05 11:57:47;;;;;;;20.77;14.95;;;5.10;67.00;;;;;;5017935;28;20908;-76
2022/12/05 12:00:25;;;;;;;17.10;13.50;;;5.00;70.10;;;;;;5016913;28;20432;-73
2022/12/05 12:03:21;;;;;;;17.65;12.75;;;5.30;66.00;;;;;;5017323;28;20456;-74
2022/12/05 12:06:07;;;;;;;18.42;13.43;;;5.40;61.30;;;;;;5014809;28;20407;-74
2022/12/05 12:08:39;;;;;;;17.83;12.60;;;5.30;61.20;;;;;;5010509;28;20491;-75
2022/12/05 12:11:31;;;;;;;15.07;12.40;;;5.50;56.80;;;;;;5012200;28;20543;-74
2022/12/05 12:14:29;;;;;;;16.50;12.40;;;5.20;59.40;;;;;;5010480;28;20428;-74
2022/12/05 12:17:03;;;;;;;17.80;13.88;;;5.50;58.80;;;;;;5013105;28;20433;-74
2022/12/05 12:20:01;;;;;;;19.17;15.38;;;5.30;61.50;;;;;;5013164;28;20469;-74
2022/12/05 12:22:49;;;;;;;17.23;14.15;;;5.00;66.50;;;;;;5011860;28;20381;-74
2022/12/05 12:25:49;;;;;;;15.15;12.00;;;4.90;66.40;;;;;;4994833;28;20421;-74
2022/12/05 12:28:55;;;;;;;15.90;12.10;;;5.10;64.30;;;;;;4988455;28;20438;-75
2022/12/05 12:31:37;;;;;;;14.15;12.00;;;5.00;62.80;;;;;;4990201;28;20801;-75
2022/12/05 12:34:21;;;;;;;18.17;13.05;;;4.80;64.40;;;;;;4995337;28;20943;-74
2022/12/05 12:37:01;;;;;;;17.08;12.88;;;4.60;66.30;;;;;;5011382;28;20487;-75
2022/12/05 12:39:35;;;;;;;16.25;13.20;;;4.50;68.80;;;;;;5008108;28;20827;-74
2022/12/05 12:42:20;;;;;;;17.85;12.70;;;4.50;70.10;;;;;;5010981;28;20393;-76
2022/12/05 12:45:23;;;;;;;18.50;11.82;;;4.40;68.00;;;;;;5010378;28;20408;-75
2022/12/05 12:48:15;;;;;;;17.35;12.75;;;4.20;69.50;;;;;;5010014;28;20388;-75
2022/12/05 12:50:43;;;;;;;18.40;13.13;;;4.00;72.80;;;;;;5009348;28;20388;-75
2022/12/05 12:53:23;;;;;;;16.80;12.55;;;4.00;73.30;;;;;;5008750;28;20397;-75
2022/12/05 12:56:35;;;;;;;17.60;13.30;;;4.00;72.70;;;;;;5009262;28;20407;-74
2022/12/05 12:59:31;;;;;;;18.77;14.35;;;4.10;73.30;;;;;;5002561;28;20409;-75
2022/12/05 13:02:26;;;;;;;14.75;12.32;;;4.10;72.10;;;;;;5013320;28;20412;-74
2022/12/05 13:04:59;;;;;;;17.77;12.57;;;4.00;70.80;;;;;;5012815;28;20962;-74
2022/12/05 13:07:37;;;;;;;15.50;12.40;;;3.90;72.30;;;;;;5008554;28;20766;-75
2022/12/05 13:10:16;;;;;;;15.90;13.18;;;3.90;71.90;;;;;;5008644;28;20420;-74